Time;durP1;ratioP1;P1;durP2;ratioP2;P2;SDS_P1;SDS_P2;PMS_P1;PMS_P2;Temp;Humidity;BMP_temperature;BMP_pressure;BME280_temperature;BME280_humidity;BME280_pressure;Samples;Min_cycle;Max_cycle;Signal;HPM_P1;HPM_P2
2023/06/25 00:01:31;;;;;;;2.08;0.40;;;27.40;63.00;;;;;;5014766;28;20037;-81
2023/06/25 00:03:57;;;;;;;1.00;0.30;;;27.40;63.00;;;;;;5014120;28;20101;-81
2023/06/25 00:06:22;;;;;;;1.58;0.40;;;27.40;63.00;;;;;;5013618;28;20040;-81
2023/06/25 00:08:49;;;;;;;2.60;0.70;;;27.40;62.90;;;;;;5013032;28;20128;-81
2023/06/25 00:11:15;;;;;;;1.13;0.40;;;27.40;63.10;;;;;;5000734;28;20381;-81
2023/06/25 00:13:41;;;;;;;0.50;0.22;;;27.40;63.20;;;;;;5013593;28;20045;-81
2023/06/25 00:16:07;;;;;;;3.38;0.52;;;27.40;63.40;;;;;;5013379;28;20449;-81
2023/06/25 00:18:33;;;;;;;1.23;0.30;;;27.30;63.70;;;;;;5012664;28;20410;-81
2023/06/25 00:21:01;;;;;;;0.65;0.30;;;27.30;63.90;;;;;;5013368;28;20397;-81
2023/06/25 00:23:26;;;;;;;0.77;0.30;;;27.20;63.80;;;;;;5013014;28;20030;-80
2023/06/25 00:25:52;;;;;;;1.58;0.68;;;27.30;64.00;;;;;;5012658;28;20022;-80
2023/06/25 00:28:18;;;;;;;2.75;0.32;;;27.20;64.20;;;;;;5013227;28;20095;-80
2023/06/25 00:30:44;;;;;;;2.15;0.60;;;27.10;64.20;;;;;;5012439;28;20054;-80
2023/06/25 00:33:10;;;;;;;1.45;0.40;;;27.10;64.70;;;;;;5012325;28;20095;-80
2023/06/25 00:35:51;;;;;;;1.27;0.50;;;27.10;64.70;;;;;;5013249;28;20113;-80
2023/06/25 00:38:20;;;;;;;0.52;0.40;;;27.10;64.80;;;;;;5006217;28;20101;-80
2023/06/25 00:40:46;;;;;;;0.88;0.45;;;27.00;64.70;;;;;;5008131;28;20775;-80
2023/06/25 00:43:15;;;;;;;0.95;0.40;;;27.00;65.10;;;;;;5013649;28;20040;-80
2023/06/25 00:45:42;;;;;;;1.48;0.75;;;26.90;64.90;;;;;;5013612;28;20068;-80
2023/06/25 00:48:08;;;;;;;2.17;0.50;;;26.90;65.10;;;;;;5013174;28;20038;-80
2023/06/25 00:50:34;;;;;;;1.13;0.60;;;26.90;65.10;;;;;;5008061;28;20117;-80
2023/06/25 00:53:02;;;;;;;1.40;0.65;;;26.90;65.10;;;;;;5012852;28;20164;-79
2023/06/25 00:55:28;;;;;;;1.33;0.63;;;26.90;65.10;;;;;;5013618;28;20026;-79
2023/06/25 00:57:55;;;;;;;0.73;0.45;;;26.90;64.90;;;;;;5013228;28;20106;-80
2023/06/25 01:00:24;;;;;;;1.10;0.60;;;26.80;65.00;;;;;;5011666;28;20037;-80
2023/06/25 01:03:02;;;;;;;3.53;0.60;;;26.80;64.90;;;;;;5012434;28;20077;-80
2023/06/25 01:05:43;;;;;;;0.52;0.30;;;26.80;65.10;;;;;;4999129;28;20172;-80
2023/06/25 01:08:10;;;;;;;2.38;0.65;;;26.80;64.80;;;;;;4995870;28;20165;-80
2023/06/25 01:10:37;;;;;;;1.25;0.55;;;26.80;65.10;;;;;;5004978;28;20029;-80
2023/06/25 01:13:03;;;;;;;0.30;0.20;;;26.80;65.00;;;;;;5006265;28;20039;-80
2023/06/25 01:15:28;;;;;;;2.03;0.50;;;26.80;65.20;;;;;;5009889;28;20180;-80
2023/06/25 01:17:57;;;;;;;1.13;0.40;;;26.90;65.20;;;;;;5011621;28;20112;-80
2023/06/25 01:20:28;;;;;;;1.70;0.70;;;26.90;65.60;;;;;;5009193;28;20022;-81
2023/06/25 01:22:58;;;;;;;0.77;0.60;;;27.00;64.80;;;;;;5010201;28;20026;-81
2023/06/25 01:25:24;;;;;;;2.13;0.50;;;27.00;64.50;;;;;;5008097;28;20056;-81
2023/06/25 01:27:50;;;;;;;1.90;0.52;;;27.00;64.20;;;;;;5005772;28;20104;-81
2023/06/25 01:30:17;;;;;;;1.55;0.55;;;26.90;64.30;;;;;;5002412;28;20033;-81
2023/06/25 01:32:46;;;;;;;2.05;0.63;;;26.90;64.10;;;;;;5022804;28;20046;-80
2023/06/25 01:35:14;;;;;;;1.13;0.57;;;26.90;64.30;;;;;;5012231;28;20030;-81
2023/06/25 01:37:40;;;;;;;2.47;0.38;;;26.80;64.50;;;;;;5012768;28;20045;-82
2023/06/25 01:40:09;;;;;;;0.95;0.52;;;26.80;64.40;;;;;;5004257;28;20014;-82
2023/06/25 01:42:35;;;;;;;0.95;0.40;;;26.80;64.30;;;;;;5012780;28;20037;-81
2023/06/25 01:45:02;;;;;;;1.30;0.50;;;26.80;64.40;;;;;;5011361;28;20018;-80
2023/06/25 01:47:27;;;;;;;2.33;0.60;;;26.80;64.40;;;;;;5012270;28;20030;-81
2023/06/25 01:49:53;;;;;;;1.75;0.50;;;26.80;65.00;;;;;;5009868;28;20034;-80
2023/06/25 01:52:19;;;;;;;1.73;0.65;;;26.80;64.50;;;;;;5007162;28;20026;-81
2023/06/25 01:54:45;;;;;;;1.48;0.60;;;26.70;64.40;;;;;;4995748;28;20033;-81
2023/06/25 01:57:11;;;;;;;2.47;0.60;;;26.70;64.50;;;;;;5010303;28;20105;-81
2023/06/25 01:59:37;;;;;;;1.10;0.40;;;26.70;64.60;;;;;;5008350;28;20105;-81
2023/06/25 02:02:03;;;;;;;1.00;0.40;;;26.70;64.60;;;;;;5009738;28;20496;-81
2023/06/25 02:04:28;;;;;;;2.00;0.80;;;26.70;64.80;;;;;;5011891;28;20032;-81
2023/06/25 02:06:54;;;;;;;2.65;0.55;;;26.60;64.90;;;;;;5008234;28;20121;-81
2023/06/25 02:09:21;;;;;;;2.55;0.90;;;26.60;64.80;;;;;;5012621;28;20046;-82
2023/06/25 02:11:46;;;;;;;2.38;0.50;;;26.60;65.10;;;;;;5012301;28;20030;-82
2023/06/25 02:14:12;;;;;;;2.72;0.73;;;26.60;65.10;;;;;;5013010;28;20076;-82
2023/06/25 02:16:38;;;;;;;1.80;0.50;;;26.50;65.00;;;;;;5008673;28;20347;-82
2023/06/25 02:19:04;;;;;;;0.98;0.50;;;26.50;65.00;;;;;;5012553;28;20481;-80
2023/06/25 02:21:30;;;;;;;1.13;0.60;;;26.50;65.00;;;;;;5011509;28;20409;-80
2023/06/25 02:23:55;;;;;;;2.55;0.68;;;26.50;65.10;;;;;;5011613;28;20033;-81
2023/06/25 02:26:21;;;;;;;5.97;0.80;;;26.40;65.60;;;;;;5011240;28;20050;-81
2023/06/25 02:28:46;;;;;;;0.68;0.60;;;26.40;65.00;;;;;;5012932;28;20130;-82
2023/06/25 02:31:12;;;;;;;1.63;0.70;;;26.40;64.90;;;;;;5014258;28;20089;-82
2023/06/25 02:33:38;;;;;;;1.15;0.50;;;26.40;64.80;;;;;;5016683;28;20026;-82
2023/06/25 02:36:04;;;;;;;1.45;0.50;;;26.40;64.90;;;;;;5012363;28;20037;-81
2023/06/25 02:38:29;;;;;;;2.08;0.70;;;26.30;65.00;;;;;;5014297;28;20018;-81
2023/06/25 02:40:55;;;;;;;1.27;0.60;;;26.30;65.10;;;;;;5015014;28;20477;-81
2023/06/25 02:43:21;;;;;;;1.50;0.75;;;26.30;65.10;;;;;;5015121;28;20474;-81
2023/06/25 02:45:46;;;;;;;1.98;0.70;;;26.30;65.40;;;;;;5012811;28;20387;-82
2023/06/25 02:48:12;;;;;;;1.02;0.57;;;26.20;65.40;;;;;;5015471;28;20030;-82
2023/06/25 02:50:38;;;;;;;1.23;0.70;;;26.20;65.70;;;;;;5007063;28;20116;-81
2023/06/25 02:53:03;;;;;;;1.10;0.52;;;26.20;65.70;;;;;;5012820;28;20523;-82
2023/06/25 02:55:29;;;;;;;3.08;0.68;;;26.20;65.90;;;;;;5013858;28;20419;-81
2023/06/25 02:57:56;;;;;;;2.10;0.80;;;26.20;66.40;;;;;;5014133;28;20109;-81
2023/06/25 03:00:21;;;;;;;1.33;0.73;;;26.20;65.80;;;;;;5013536;28;20073;-81
2023/06/25 03:02:47;;;;;;;2.40;0.70;;;26.20;65.80;;;;;;5015786;28;20030;-81
2023/06/25 03:05:13;;;;;;;2.85;0.80;;;26.10;65.70;;;;;;5015147;28;20450;-81
2023/06/25 03:07:49;;;;;;;1.35;0.70;;;26.10;65.70;;;;;;5012056;28;20037;-80
2023/06/25 03:10:43;;;;;;;5.43;0.90;;;26.00;65.80;;;;;;5013393;28;20061;-81
2023/06/25 03:13:11;;;;;;;2.60;0.68;;;26.00;65.80;;;;;;5015552;28;20377;-81
2023/06/25 03:15:37;;;;;;;6.93;0.80;;;26.00;65.50;;;;;;5015077;28;20474;-81
2023/06/25 03:18:03;;;;;;;1.38;0.70;;;26.00;65.40;;;;;;5015202;28;20033;-81
2023/06/25 03:20:28;;;;;;;2.58;0.60;;;26.00;65.60;;;;;;5012171;28;20034;-81
2023/06/25 03:22:54;;;;;;;2.47;0.50;;;26.00;65.60;;;;;;5014989;28;20168;-81
2023/06/25 03:25:20;;;;;;;5.43;0.60;;;26.00;65.80;;;;;;5014570;28;20398;-81
2023/06/25 03:27:45;;;;;;;1.15;0.60;;;26.00;65.70;;;;;;5014698;28;20083;-81
2023/06/25 03:30:11;;;;;;;2.42;0.55;;;26.00;65.70;;;;;;5014160;28;20034;-81
2023/06/25 03:32:37;;;;;;;1.83;0.70;;;26.00;65.60;;;;;;5013353;28;20037;-82
2023/06/25 03:35:03;;;;;;;1.98;0.70;;;26.00;66.10;;;;;;5014702;28;20118;-82
2023/06/25 03:37:28;;;;;;;1.38;0.68;;;26.10;66.20;;;;;;5013325;28;20462;-82
2023/06/25 03:39:54;;;;;;;3.85;0.82;;;26.10;65.70;;;;;;5013738;28;20096;-82
2023/06/25 03:42:20;;;;;;;1.20;0.55;;;26.10;64.90;;;;;;5007397;28;20022;-81
2023/06/25 03:44:52;;;;;;;1.25;0.73;;;26.20;64.40;;;;;;5009732;28;20030;-81
2023/06/25 03:47:17;;;;;;;3.70;0.90;;;26.20;63.90;;;;;;5014456;28;20088;-80
2023/06/25 03:49:43;;;;;;;4.05;0.70;;;26.30;63.80;;;;;;5013034;28;20034;-80
2023/06/25 03:52:09;;;;;;;3.50;0.63;;;26.30;63.70;;;;;;5014252;28;20029;-80
2023/06/25 03:54:35;;;;;;;1.65;0.60;;;26.30;63.40;;;;;;5013875;28;20061;-81
2023/06/25 03:57:00;;;;;;;1.92;0.60;;;26.30;63.60;;;;;;5013080;28;20592;-81
2023/06/25 03:59:26;;;;;;;1.40;0.68;;;26.40;63.50;;;;;;5012756;28;20030;-80
2023/06/25 04:01:52;;;;;;;1.90;0.70;;;26.30;63.20;;;;;;5014253;28;20039;-80
2023/06/25 04:04:18;;;;;;;2.80;0.88;;;26.30;63.10;;;;;;5014411;28;20030;-81
2023/06/25 04:06:43;;;;;;;3.58;0.98;;;26.30;62.90;;;;;;5005524;28;20061;-80
2023/06/25 04:09:09;;;;;;;2.67;0.60;;;26.20;62.80;;;;;;5004368;28;20098;-80
2023/06/25 04:11:35;;;;;;;1.77;0.60;;;26.20;62.80;;;;;;5001389;28;20128;-80
2023/06/25 04:14:00;;;;;;;1.60;0.60;;;26.20;62.90;;;;;;5005486;28;20061;-80
2023/06/25 04:16:26;;;;;;;3.60;0.80;;;26.20;63.00;;;;;;5000140;28;20414;-80
2023/06/25 04:18:52;;;;;;;2.13;0.57;;;26.20;63.70;;;;;;4999600;28;20041;-80
2023/06/25 04:21:18;;;;;;;1.30;0.70;;;26.30;63.90;;;;;;5000972;28;20030;-80
2023/06/25 04:23:43;;;;;;;2.03;0.90;;;26.30;63.70;;;;;;4999515;28;20045;-80
2023/06/25 04:26:09;;;;;;;3.00;0.73;;;26.40;63.30;;;;;;4999414;28;20022;-80
2023/06/25 04:28:35;;;;;;;1.10;0.50;;;26.40;63.20;;;;;;5001680;28;20034;-80
2023/06/25 04:31:00;;;;;;;0.90;0.45;;;26.40;63.00;;;;;;4998454;28;20037;-80
2023/06/25 04:33:27;;;;;;;3.80;0.65;;;26.40;62.90;;;;;;5002064;28;20466;-80
2023/06/25 04:35:52;;;;;;;2.25;0.85;;;26.50;62.80;;;;;;4999752;28;20030;-80
2023/06/25 04:38:18;;;;;;;1.50;0.70;;;26.50;62.40;;;;;;5006685;28;20137;-80
2023/06/25 04:40:44;;;;;;;2.58;0.70;;;26.50;62.40;;;;;;5002818;28;20030;-79
2023/06/25 04:43:09;;;;;;;0.70;0.60;;;26.50;62.20;;;;;;5006259;28;20496;-80
2023/06/25 04:45:35;;;;;;;1.08;0.60;;;26.50;61.90;;;;;;5001314;28;20401;-80
2023/06/25 04:48:01;;;;;;;1.40;0.82;;;26.50;61.70;;;;;;4995815;28;20037;-80
2023/06/25 04:50:26;;;;;;;0.68;0.60;;;26.60;61.30;;;;;;5003798;28;20034;-80
2023/06/25 04:52:55;;;;;;;1.75;0.70;;;26.60;61.10;;;;;;5002277;28;20743;-80
2023/06/25 04:55:21;;;;;;;3.85;0.93;;;26.50;61.30;;;;;;5001710;28;20034;-80
2023/06/25 04:57:46;;;;;;;1.35;0.75;;;26.60;62.40;;;;;;4998652;28;20084;-80
2023/06/25 05:00:13;;;;;;;1.00;0.60;;;26.60;62.20;;;;;;5005487;28;20044;-80
2023/06/25 05:02:38;;;;;;;1.13;0.77;;;26.60;62.40;;;;;;4993104;28;20336;-80
2023/06/25 05:05:04;;;;;;;5.28;1.00;;;26.50;62.20;;;;;;4997487;28;20040;-80
2023/06/25 05:07:30;;;;;;;2.35;0.82;;;26.50;62.30;;;;;;4995453;28;20347;-79
2023/06/25 05:09:56;;;;;;;1.33;0.85;;;26.40;62.10;;;;;;5001015;28;20062;-80
2023/06/25 05:12:21;;;;;;;1.02;0.70;;;26.40;62.40;;;;;;4998895;28;20026;-80
2023/06/25 05:14:47;;;;;;;2.28;1.02;;;26.40;62.20;;;;;;5007222;28;20054;-80
2023/06/25 05:17:13;;;;;;;1.80;1.00;;;26.40;61.30;;;;;;5013202;28;20026;-80
2023/06/25 05:19:39;;;;;;;1.60;1.20;;;26.30;61.30;;;;;;5009298;28;20014;-80
2023/06/25 05:22:05;;;;;;;2.15;0.70;;;26.30;61.70;;;;;;5011702;28;20038;-81
2023/06/25 05:24:31;;;;;;;0.70;0.60;;;26.30;62.40;;;;;;5011475;28;20029;-81
2023/06/25 05:26:57;;;;;;;2.50;0.93;;;26.30;62.10;;;;;;5013201;28;20046;-81
2023/06/25 05:29:22;;;;;;;1.10;0.90;;;26.40;62.30;;;;;;5009079;28;20042;-80
2023/06/25 05:31:48;;;;;;;0.70;0.70;;;26.50;62.10;;;;;;5013151;28;20037;-78
2023/06/25 05:34:14;;;;;;;1.70;0.98;;;26.50;62.50;;;;;;5011375;28;20044;-79
2023/06/25 05:36:39;;;;;;;1.00;0.90;;;26.60;62.80;;;;;;5012954;28;20033;-79
2023/06/25 05:39:05;;;;;;;2.22;0.90;;;26.60;61.90;;;;;;5011462;28;20033;-78
2023/06/25 05:41:31;;;;;;;1.20;0.80;;;26.60;61.50;;;;;;5012938;28;20110;-78
2023/06/25 05:43:56;;;;;;;1.13;0.73;;;26.70;61.30;;;;;;5011824;28;20111;-78
2023/06/25 05:46:22;;;;;;;2.05;0.95;;;26.70;61.40;;;;;;5009024;28;20129;-78
2023/06/25 05:48:48;;;;;;;1.95;1.10;;;26.70;61.40;;;;;;5008733;28;20108;-79
2023/06/25 05:51:14;;;;;;;4.45;0.90;;;26.60;60.00;;;;;;5012205;28;20041;-79
2023/06/25 05:53:42;;;;;;;3.00;0.88;;;26.60;60.80;;;;;;5011628;28;20463;-79
2023/06/25 05:56:08;;;;;;;3.53;1.02;;;26.60;61.10;;;;;;5011295;28;20107;-81
2023/06/25 05:58:34;;;;;;;2.95;0.90;;;26.60;61.20;;;;;;5010296;28;20025;-78
2023/06/25 06:01:00;;;;;;;1.08;0.75;;;26.60;61.40;;;;;;5009415;28;20026;-78
2023/06/25 06:03:26;;;;;;;1.00;0.80;;;26.70;61.60;;;;;;5005442;28;20073;-78
2023/06/25 06:05:54;;;;;;;1.23;1.05;;;26.70;61.80;;;;;;5014021;28;20022;-78
2023/06/25 06:08:20;;;;;;;2.13;1.15;;;26.80;62.00;;;;;;5015920;28;20100;-78
2023/06/25 06:10:46;;;;;;;1.48;0.85;;;26.80;62.20;;;;;;5015445;28;20029;-78
2023/06/25 06:13:12;;;;;;;0.98;0.90;;;26.90;60.90;;;;;;5015520;28;20028;-78
2023/06/25 06:15:38;;;;;;;1.02;0.90;;;27.00;60.10;;;;;;5012761;28;20478;-77
2023/06/25 06:18:03;;;;;;;2.25;1.35;;;27.00;59.60;;;;;;5015407;28;20060;-77
2023/06/25 06:20:29;;;;;;;1.48;1.30;;;27.10;59.10;;;;;;5015320;28;20489;-77
2023/06/25 06:22:57;;;;;;;2.22;1.00;;;27.10;58.20;;;;;;5014372;28;20034;-78
2023/06/25 06:25:23;;;;;;;1.40;1.00;;;27.10;57.60;;;;;;5014985;28;20056;-78
2023/06/25 06:27:48;;;;;;;1.20;1.10;;;27.20;57.60;;;;;;5014908;28;20030;-78
2023/06/25 06:30:14;;;;;;;1.02;0.93;;;27.20;57.60;;;;;;5010934;28;20105;-79
2023/06/25 06:32:40;;;;;;;1.88;1.55;;;27.20;57.10;;;;;;5007473;28;20065;-78
2023/06/25 06:35:06;;;;;;;1.23;1.08;;;27.20;56.90;;;;;;5011817;28;20045;-82
2023/06/25 06:37:31;;;;;;;1.90;1.00;;;27.20;56.50;;;;;;5015326;28;20034;-78
2023/06/25 06:39:57;;;;;;;1.63;1.23;;;27.30;56.40;;;;;;5016419;28;20465;-77
2023/06/25 06:42:23;;;;;;;1.65;1.30;;;27.30;56.10;;;;;;5016442;28;20359;-77
2023/06/25 06:44:48;;;;;;;1.35;1.25;;;27.30;56.50;;;;;;5014258;28;20493;-78
2023/06/25 06:47:14;;;;;;;1.10;1.00;;;27.30;56.70;;;;;;5015946;28;20084;-77
2023/06/25 06:49:39;;;;;;;1.10;1.00;;;27.40;56.90;;;;;;5015499;28;20030;-78
2023/06/25 06:52:05;;;;;;;1.45;1.23;;;27.40;56.60;;;;;;5016075;28;20030;-78
2023/06/25 06:54:31;;;;;;;1.17;1.08;;;27.40;56.20;;;;;;5014657;28;20026;-78
2023/06/25 06:56:57;;;;;;;2.03;1.42;;;27.40;56.20;;;;;;5014662;28;20112;-77
2023/06/25 06:59:22;;;;;;;1.63;1.17;;;27.40;56.20;;;;;;5015632;28;20524;-77
2023/06/25 07:01:48;;;;;;;1.70;1.40;;;27.50;56.10;;;;;;5015962;28;20390;-78
2023/06/25 07:04:14;;;;;;;1.95;1.50;;;27.50;55.50;;;;;;5013497;28;20482;-78
2023/06/25 07:06:39;;;;;;;1.30;1.17;;;27.60;55.90;;;;;;5000300;28;20112;-77
2023/06/25 07:09:05;;;;;;;1.15;1.05;;;27.70;54.70;;;;;;4996343;28;20062;-77
2023/06/25 07:11:31;;;;;;;1.85;1.38;;;27.70;54.90;;;;;;4995786;28;20044;-78
2023/06/25 07:13:57;;;;;;;1.65;1.05;;;27.70;54.70;;;;;;5010747;28;20034;-78
2023/06/25 07:16:22;;;;;;;1.38;1.27;;;27.80;54.40;;;;;;5013823;28;20022;-78
2023/06/25 07:18:48;;;;;;;3.08;1.38;;;27.90;54.20;;;;;;5015350;28;20022;-78
2023/06/25 07:21:14;;;;;;;1.50;1.27;;;27.90;53.90;;;;;;5015158;28;20382;-78
2023/06/25 07:23:39;;;;;;;1.92;1.30;;;28.00;53.80;;;;;;5014072;28;20354;-78
2023/06/25 07:26:05;;;;;;;2.20;1.25;;;28.00;53.20;;;;;;5013894;28;20367;-78
2023/06/25 07:28:31;;;;;;;1.15;1.00;;;28.00;53.20;;;;;;5004588;28;20513;-77
2023/06/25 07:30:57;;;;;;;2.97;1.52;;;28.00;53.70;;;;;;4995720;28;20034;-78
2023/06/25 07:33:22;;;;;;;1.90;1.30;;;28.10;54.10;;;;;;5005111;28;20029;-78
2023/06/25 07:35:48;;;;;;;1.30;1.20;;;28.10;54.10;;;;;;5015187;28;20069;-78
2023/06/25 07:38:14;;;;;;;3.15;1.40;;;28.10;54.50;;;;;;4997289;28;20497;-78
2023/06/25 07:40:39;;;;;;;1.35;1.20;;;28.20;54.00;;;;;;4999236;28;20363;-78
2023/06/25 07:43:05;;;;;;;1.25;1.10;;;28.20;53.80;;;;;;5006346;28;20358;-78
2023/06/25 07:45:31;;;;;;;1.40;1.30;;;28.20;53.60;;;;;;5013406;28;20434;-78
2023/06/25 07:47:56;;;;;;;2.72;1.20;;;28.30;53.80;;;;;;4996781;28;20026;-78
2023/06/25 07:50:22;;;;;;;1.52;1.33;;;28.40;54.00;;;;;;5005566;28;20058;-78
2023/06/25 07:52:48;;;;;;;1.48;1.30;;;28.40;53.50;;;;;;5003704;28;20348;-78
2023/06/25 07:55:14;;;;;;;3.70;1.55;;;28.40;53.10;;;;;;5013525;28;20092;-78
2023/06/25 07:57:40;;;;;;;1.40;1.27;;;28.40;52.90;;;;;;5014964;28;20029;-78
2023/06/25 08:00:06;;;;;;;1.77;1.30;;;28.50;52.90;;;;;;5014495;28;20034;-78
2023/06/25 08:02:32;;;;;;;1.65;1.13;;;28.50;52.70;;;;;;5015137;28;20018;-78
2023/06/25 08:04:58;;;;;;;1.67;1.55;;;28.50;52.90;;;;;;5014397;28;20359;-78
2023/06/25 08:07:23;;;;;;;3.05;1.52;;;28.60;52.80;;;;;;5013475;28;20028;-81
2023/06/25 08:09:49;;;;;;;2.17;1.33;;;28.60;52.90;;;;;;5020839;28;20060;-81
2023/06/25 08:12:16;;;;;;;2.38;1.42;;;28.60;52.60;;;;;;5020419;28;20049;-81
2023/06/25 08:14:42;;;;;;;1.08;0.98;;;28.70;52.10;;;;;;5014549;28;20124;-81
2023/06/25 08:17:07;;;;;;;2.38;1.40;;;28.70;52.30;;;;;;5028313;28;20041;-81
2023/06/25 08:19:33;;;;;;;3.03;1.42;;;28.70;52.00;;;;;;5013448;28;20029;-81
2023/06/25 08:22:00;;;;;;;1.48;1.27;;;28.80;52.60;;;;;;4996790;28;20022;-81
2023/06/25 08:24:26;;;;;;;1.50;1.30;;;28.80;51.90;;;;;;5010034;28;20032;-81
2023/06/25 08:26:51;;;;;;;1.65;1.30;;;28.80;52.40;;;;;;5004186;28;20027;-81
2023/06/25 08:29:17;;;;;;;2.22;1.50;;;28.80;52.80;;;;;;5010056;28;20036;-81
2023/06/25 08:31:43;;;;;;;1.67;1.50;;;28.90;52.60;;;;;;5013914;28;20030;-81
2023/06/25 08:34:08;;;;;;;1.63;1.30;;;28.90;51.70;;;;;;5011589;28;20029;-80
2023/06/25 08:36:36;;;;;;;1.75;1.35;;;28.90;52.00;;;;;;5006277;28;20476;-80
2023/06/25 08:39:01;;;;;;;2.08;1.30;;;28.90;51.50;;;;;;5013002;28;20108;-80
2023/06/25 08:41:28;;;;;;;1.98;1.50;;;29.00;52.00;;;;;;5009073;28;20129;-79
2023/06/25 08:43:54;;;;;;;2.72;1.63;;;29.00;52.00;;;;;;5010654;28;20120;-79
2023/06/25 08:46:22;;;;;;;1.98;1.55;;;29.00;51.30;;;;;;5007669;28;20038;-79
2023/06/25 08:48:53;;;;;;;1.63;1.35;;;29.00;51.70;;;;;;5002940;28;20045;-80
2023/06/25 08:51:22;;;;;;;1.50;1.40;;;29.10;52.30;;;;;;5006168;28;20068;-80
2023/06/25 08:53:49;;;;;;;2.17;1.48;;;29.10;51.70;;;;;;5011261;28;20097;-80
2023/06/25 08:56:18;;;;;;;2.42;1.58;;;29.20;52.30;;;;;;5012653;28;20042;-80
2023/06/25 08:58:44;;;;;;;2.28;1.80;;;29.20;52.20;;;;;;5011741;28;20064;-79
2023/06/25 09:01:14;;;;;;;5.03;1.60;;;29.20;51.80;;;;;;5009609;28;20026;-78
2023/06/25 09:03:41;;;;;;;2.17;1.60;;;29.30;52.20;;;;;;5012692;28;20037;-78
2023/06/25 09:06:16;;;;;;;3.50;1.63;;;29.40;52.30;;;;;;5001882;28;20034;-78
2023/06/25 09:08:43;;;;;;;2.88;1.40;;;29.40;51.90;;;;;;5008341;28;20093;-78
2023/06/25 09:11:09;;;;;;;2.15;1.38;;;29.50;51.90;;;;;;5011961;28;20040;-78
2023/06/25 09:13:37;;;;;;;1.30;1.20;;;29.50;51.80;;;;;;5012708;28;20502;-78
2023/06/25 09:16:07;;;;;;;1.92;1.20;;;29.60;51.70;;;;;;5007660;28;20096;-78
2023/06/25 09:18:34;;;;;;;1.95;1.20;;;29.70;51.80;;;;;;5011809;28;20136;-78
2023/06/25 09:21:07;;;;;;;1.20;1.00;;;29.70;51.90;;;;;;5001995;28;20052;-79
2023/06/25 09:23:35;;;;;;;1.45;1.35;;;29.80;51.50;;;;;;5008391;28;20076;-79
2023/06/25 09:26:06;;;;;;;1.52;1.30;;;29.80;51.20;;;;;;5011169;28;20044;-79
2023/06/25 09:28:33;;;;;;;1.88;1.40;;;29.80;51.50;;;;;;5003105;28;20137;-79
2023/06/25 09:31:00;;;;;;;3.05;1.42;;;29.90;51.20;;;;;;5003178;28;20124;-79
2023/06/25 09:33:35;;;;;;;1.80;1.50;;;29.90;51.00;;;;;;5006274;28;20038;-79
2023/06/25 09:36:03;;;;;;;2.22;1.40;;;29.90;51.50;;;;;;5002676;28;20030;-79
2023/06/25 09:38:30;;;;;;;2.42;1.30;;;30.00;51.30;;;;;;4999864;28;20026;-79
2023/06/25 09:41:00;;;;;;;2.10;1.50;;;30.10;51.10;;;;;;5004247;28;20069;-82
2023/06/25 09:43:27;;;;;;;1.38;1.17;;;30.20;50.30;;;;;;5008912;28;20053;-82
2023/06/25 09:45:54;;;;;;;1.45;1.27;;;30.20;50.20;;;;;;5004040;28;20025;-83
2023/06/25 09:48:23;;;;;;;1.77;1.33;;;30.20;50.60;;;;;;5006691;28;20030;-82
2023/06/25 09:50:50;;;;;;;2.55;1.50;;;30.40;50.40;;;;;;5001235;28;20634;-82
2023/06/25 09:53:23;;;;;;;2.30;1.70;;;30.40;50.20;;;;;;5002856;28;20076;-81
2023/06/25 09:55:49;;;;;;;1.55;1.20;;;30.60;49.50;;;;;;5000756;28;20502;-81
2023/06/25 09:58:17;;;;;;;1.67;1.23;;;30.60;49.30;;;;;;5001353;28;20034;-82
2023/06/25 10:00:43;;;;;;;2.45;1.48;;;30.70;49.20;;;;;;5008000;28;21970;-81
2023/06/25 10:03:12;;;;;;;3.95;1.45;;;30.80;49.40;;;;;;5015605;28;20436;-80
2023/06/25 10:05:38;;;;;;;2.28;1.73;;;30.90;48.80;;;;;;5005481;28;20045;-80
2023/06/25 10:08:04;;;;;;;2.47;1.70;;;31.00;48.40;;;;;;5010149;28;20036;-80
2023/06/25 10:10:31;;;;;;;2.40;1.70;;;31.00;48.40;;;;;;5006165;28;20382;-81
2023/06/25 10:12:57;;;;;;;1.63;1.50;;;31.10;48.00;;;;;;5011871;28;20466;-80
2023/06/25 10:15:34;;;;;;;2.63;1.90;;;31.20;46.50;;;;;;5012927;28;20029;-79
2023/06/25 10:18:04;;;;;;;2.53;1.33;;;31.20;47.30;;;;;;5012624;28;20083;-81
2023/06/25 10:20:37;;;;;;;1.98;1.30;;;31.30;47.90;;;;;;5010383;28;20065;-82
2023/06/25 10:23:13;;;;;;;2.00;1.70;;;31.40;48.00;;;;;;5007566;28;20501;-84
2023/06/25 10:25:51;;;;;;;4.38;1.70;;;31.50;46.60;;;;;;5006263;28;20041;-84
2023/06/25 10:28:17;;;;;;;2.35;1.52;;;31.50;47.70;;;;;;5016253;28;20087;-84
2023/06/25 10:30:47;;;;;;;1.90;1.77;;;31.60;47.80;;;;;;5017362;28;20018;-84
2023/06/25 10:33:15;;;;;;;2.65;1.70;;;31.70;46.70;;;;;;5011781;28;20079;-86
2023/06/25 10:35:43;;;;;;;1.85;1.67;;;31.70;46.60;;;;;;5002632;28;20014;-85
2023/06/25 10:38:09;;;;;;;3.25;1.70;;;31.80;47.00;;;;;;5008775;28;20165;-84
2023/06/25 10:40:37;;;;;;;1.77;1.40;;;32.00;47.10;;;;;;5009943;28;20033;-85
2023/06/25 10:43:03;;;;;;;1.92;1.67;;;32.10;47.10;;;;;;5005082;28;20029;-84
2023/06/25 10:45:29;;;;;;;2.03;1.80;;;32.20;46.40;;;;;;5003961;28;20845;-84
2023/06/25 10:48:07;;;;;;;2.15;1.80;;;32.30;45.20;;;;;;5006361;28;20038;-85
2023/06/25 10:50:34;;;;;;;3.22;1.73;;;32.40;45.70;;;;;;4999626;28;20398;-79
2023/06/25 10:53:01;;;;;;;2.55;2.25;;;32.50;45.30;;;;;;5009359;28;20045;-80
2023/06/25 10:55:27;;;;;;;4.80;1.70;;;32.60;45.50;;;;;;5012121;28;20030;-79
2023/06/25 10:57:54;;;;;;;2.90;2.20;;;32.70;45.30;;;;;;5008596;28;20096;-79
2023/06/25 11:00:24;;;;;;;2.08;1.60;;;32.80;44.70;;;;;;5010727;28;20022;-79
2023/06/25 11:02:51;;;;;;;2.78;1.67;;;32.90;44.50;;;;;;5010255;28;20034;-79
2023/06/25 11:05:22;;;;;;;2.75;1.80;;;33.00;44.40;;;;;;5011665;28;20023;-78
2023/06/25 11:07:54;;;;;;;2.35;2.00;;;33.10;44.40;;;;;;5015457;28;20018;-79
2023/06/25 11:10:23;;;;;;;3.05;2.20;;;33.30;43.20;;;;;;5011460;28;20077;-79
2023/06/25 11:12:49;;;;;;;3.53;2.20;;;33.30;43.10;;;;;;5012501;28;20367;-79
2023/06/25 11:15:18;;;;;;;2.25;1.80;;;33.50;42.10;;;;;;5010971;28;20105;-79
2023/06/25 11:17:53;;;;;;;2.60;1.90;;;33.60;41.90;;;;;;5010057;28;20479;-79
2023/06/25 11:20:22;;;;;;;2.60;1.88;;;33.70;43.20;;;;;;5004337;28;20280;-79
2023/06/25 11:22:48;;;;;;;3.47;2.13;;;33.90;42.30;;;;;;5011024;28;20097;-80
2023/06/25 11:25:14;;;;;;;3.53;2.70;;;34.00;42.50;;;;;;5010210;28;20112;-81
2023/06/25 11:27:41;;;;;;;3.47;1.60;;;34.20;42.60;;;;;;5009933;28;20044;-80
2023/06/25 11:30:08;;;;;;;2.38;2.05;;;34.30;42.20;;;;;;5013254;28;20466;-81
2023/06/25 11:32:35;;;;;;;2.30;2.10;;;34.60;41.80;;;;;;5012005;28;20089;-81
2023/06/25 11:35:10;;;;;;;3.45;1.88;;;34.90;41.40;;;;;;5004218;28;20032;-81
2023/06/25 11:37:46;;;;;;;4.20;2.05;;;35.30;41.10;;;;;;4995583;28;20037;-81
2023/06/25 11:40:29;;;;;;;4.55;2.40;;;35.60;41.50;;;;;;4998604;28;20358;-81
2023/06/25 11:42:55;;;;;;;7.82;2.28;;;36.10;39.60;;;;;;5013641;28;20042;-81
2023/06/25 11:45:21;;;;;;;4.50;2.15;;;36.30;40.80;;;;;;5006127;28;20058;-81
2023/06/25 11:47:53;;;;;;;2.08;1.88;;;36.60;40.40;;;;;;5005661;28;20040;-81
2023/06/25 11:50:22;;;;;;;2.15;1.83;;;36.90;39.40;;;;;;5000166;28;20046;-81
2023/06/25 11:52:48;;;;;;;2.78;2.35;;;37.20;39.10;;;;;;5003695;28;20038;-82
2023/06/25 11:55:14;;;;;;;3.42;2.10;;;37.40;38.80;;;;;;5001544;28;20241;-81
2023/06/25 11:57:40;;;;;;;3.60;2.05;;;37.60;38.80;;;;;;5002524;28;20053;-81
2023/06/25 12:00:07;;;;;;;2.08;1.83;;;37.70;38.50;;;;;;4997929;28;20022;-82
2023/06/25 12:02:33;;;;;;;2.50;2.30;;;37.80;38.20;;;;;;5001068;28;20026;-81
2023/06/25 12:04:59;;;;;;;2.60;2.00;;;37.90;37.60;;;;;;5005260;28;20520;-81
2023/06/25 12:07:25;;;;;;;3.92;2.00;;;38.10;37.80;;;;;;5006409;28;20042;-81
2023/06/25 12:09:51;;;;;;;3.13;2.30;;;38.20;38.00;;;;;;5005655;28;20073;-81
2023/06/25 12:12:17;;;;;;;2.67;2.25;;;38.30;37.60;;;;;;5006625;28;20032;-83
2023/06/25 12:14:44;;;;;;;2.13;1.85;;;38.50;38.10;;;;;;5014727;28;20109;-82
2023/06/25 12:17:11;;;;;;;11.93;2.53;;;38.60;37.80;;;;;;5024407;28;20033;-82
2023/06/25 12:19:36;;;;;;;2.70;2.10;;;38.70;37.70;;;;;;5020479;28;20069;-81
2023/06/25 12:22:02;;;;;;;3.35;2.00;;;38.80;37.30;;;;;;5019763;28;20561;-81
2023/06/25 12:24:28;;;;;;;3.67;2.13;;;38.90;36.80;;;;;;5016991;28;20026;-81
2023/06/25 12:26:54;;;;;;;3.10;1.88;;;39.00;36.30;;;;;;5000450;28;20039;-82
2023/06/25 12:29:20;;;;;;;3.50;2.40;;;39.10;36.30;;;;;;4996788;28;20054;-82
2023/06/25 12:31:46;;;;;;;3.35;2.13;;;39.10;35.90;;;;;;5013174;28;20509;-83
2023/06/25 12:34:12;;;;;;;2.80;2.08;;;39.20;35.70;;;;;;5005576;28;20116;-82
2023/06/25 12:36:37;;;;;;;2.85;2.47;;;39.20;35.80;;;;;;4995997;28;20030;-82
2023/06/25 12:39:03;;;;;;;2.85;2.28;;;39.30;36.10;;;;;;5010620;28;20354;-82
2023/06/25 12:41:29;;;;;;;2.15;1.80;;;39.40;35.70;;;;;;5014271;28;20030;-81
2023/06/25 12:43:55;;;;;;;4.65;1.73;;;39.40;36.10;;;;;;5012797;28;20508;-81
2023/06/25 12:46:21;;;;;;;2.13;1.90;;;39.40;36.10;;;;;;5012460;28;20117;-81